createdAt,value
2015-10-09T00:00:11.315Z,73827
2015-10-09T00:00:23.674Z,73827
2015-10-09T00:00:36.049Z,73825
2015-10-09T00:00:48.412Z,73831
2015-10-09T00:01:00.771Z,73827
2015-10-09T00:01:13.146Z,73823
2015-10-09T00:01:25.521Z,73830
2015-10-09T00:01:37.896Z,73828
2015-10-09T00:01:50.290Z,73826
2015-10-09T00:02:02.680Z,73828
2015-10-09T00:02:15.071Z,73827
2015-10-09T00:02:27.477Z,73832
2015-10-09T00:02:39.868Z,73831
2015-10-09T00:02:52.214Z,73825
2015-10-09T00:03:04.558Z,73830
2015-10-09T00:03:16.918Z,73822
2015-10-09T00:03:29.261Z,73824
2015-10-09T00:03:41.621Z,73825
2015-10-09T00:03:53.966Z,73824
2015-10-09T00:04:06.326Z,73821
2015-10-09T00:04:18.701Z,73823
2015-10-09T00:04:31.076Z,73825
2015-10-09T00:04:43.451Z,73824
2015-10-09T00:04:55.829Z,73823
2015-10-09T00:05:08.219Z,73831
2015-10-09T00:05:20.626Z,73827
2015-10-09T00:05:33.016Z,73830
2015-10-09T00:05:45.407Z,73826
2015-10-09T00:05:57.769Z,73826
2015-10-09T00:06:10.113Z,73823
2015-10-09T00:06:22.472Z,73827
2015-10-09T00:06:34.847Z,73821
2015-10-09T00:06:47.207Z,73820
2015-10-09T00:06:59.569Z,73827
2015-10-09T00:07:11.929Z,73826
2015-10-09T00:07:24.288Z,73825
2015-10-09T00:07:36.663Z,73827
2015-10-09T00:07:49.041Z,73830
2015-10-09T00:08:01.416Z,73830
2015-10-09T00:08:13.807Z,73828
2015-10-09T00:08:26.197Z,73821
2015-10-09T00:08:38.557Z,73827
2015-10-09T00:08:50.934Z,73820
2015-10-09T00:09:03.293Z,73824
2015-10-09T00:09:15.668Z,73824
2015-10-09T00:09:28.043Z,73828
2015-10-09T00:09:39.684Z,73828
2015-10-09T00:09:52.062Z,73818
2015-10-09T00:10:04.421Z,73822
2015-10-09T00:10:16.796Z,73817
2015-10-09T00:10:29.187Z,73821
2015-10-09T00:10:41.546Z,73823
2015-10-09T00:10:53.236Z,73827
2015-10-09T00:11:05.643Z,73827
2015-10-09T00:11:18.018Z,73822
2015-10-09T00:11:30.424Z,73824
2015-10-09T00:11:42.815Z,73824
2015-10-09T00:11:55.176Z,73826
2015-10-09T00:12:07.535Z,73823
2015-10-09T00:12:19.895Z,73813
2015-10-09T00:12:32.270Z,73818
2015-10-09T00:12:44.645Z,73829
2015-10-09T00:12:57.007Z,73824
2015-10-09T00:13:09.366Z,73821
2015-10-09T00:13:21.741Z,73820
2015-10-09T00:13:34.132Z,73826
2015-10-09T00:13:46.507Z,73821
2015-10-09T00:13:58.915Z,73816
2015-10-09T00:14:11.322Z,73825
2015-10-09T00:14:23.728Z,73825
2015-10-09T00:14:36.118Z,73818
2015-10-09T00:14:48.509Z,73817
2015-10-09T00:15:00.872Z,73821
2015-10-09T00:15:13.247Z,73823
2015-10-09T00:15:25.607Z,73822
2015-10-09T00:15:37.966Z,73814
2015-10-09T00:15:50.326Z,73818
2015-10-09T00:16:01.999Z,73826
2015-10-09T00:16:14.359Z,73818
2015-10-09T00:16:26.718Z,73824
2015-10-09T00:16:39.093Z,73827
2015-10-09T00:16:50.765Z,73814
2015-10-09T00:17:03.143Z,73821
2015-10-09T00:17:15.534Z,73825
2015-10-09T00:17:27.924Z,73824
2015-10-09T00:17:40.331Z,73818
2015-10-09T00:17:52.706Z,73820
2015-10-09T00:18:05.084Z,73820
2015-10-09T00:18:17.443Z,73818
2015-10-09T00:18:29.802Z,73818
2015-10-09T00:18:42.177Z,73816
2015-10-09T00:18:54.539Z,73823
2015-10-09T00:19:06.898Z,73824
2015-10-09T00:19:19.257Z,73818
2015-10-09T00:19:31.617Z,73821
2015-10-09T00:19:43.976Z,73825
2015-10-09T00:19:56.370Z,73820
2015-10-09T00:20:08.729Z,73819
2015-10-09T00:20:21.120Z,73818
2015-10-09T00:20:33.510Z,73822
2015-10-09T00:20:45.917Z,73819
2015-10-09T00:20:58.326Z,73826
2015-10-09T00:21:10.701Z,73819
2015-10-09T00:21:23.076Z,73825
2015-10-09T00:21:35.435Z,73817
2015-10-09T00:21:47.810Z,73826
2015-10-09T00:22:00.173Z,73824
2015-10-09T00:22:12.532Z,73813
2015-10-09T00:22:24.907Z,73824
2015-10-09T00:22:37.266Z,73816
2015-10-09T00:22:49.657Z,73815
2015-10-09T00:23:02.050Z,73826
2015-10-09T00:23:14.440Z,73822
2015-10-09T00:23:26.800Z,73818
2015-10-09T00:23:39.159Z,73821
2015-10-09T00:23:51.534Z,73823
2015-10-09T00:24:03.896Z,73820
2015-10-09T00:24:16.256Z,73820
2015-10-09T00:24:28.631Z,73814
2015-10-09T00:24:41.006Z,73828
2015-10-09T00:24:53.365Z,73820
2015-10-09T00:25:05.774Z,73821
2015-10-09T00:25:18.165Z,73822
2015-10-09T00:25:30.571Z,73828
2015-10-09T00:25:42.978Z,73818
2015-10-09T00:25:55.353Z,73821
2015-10-09T00:26:07.731Z,73820
2015-10-09T00:26:20.074Z,73825
2015-10-09T00:26:32.449Z,73825
2015-10-09T00:26:44.824Z,73820
2015-10-09T00:26:57.184Z,73826
2015-10-09T00:27:09.561Z,73826
2015-10-09T00:27:21.920Z,73820
2015-10-09T00:27:34.295Z,73816
2015-10-09T00:27:46.686Z,73823
2015-10-09T00:27:59.061Z,73817
2015-10-09T00:28:11.454Z,73821
2015-10-09T00:28:23.845Z,73820
2015-10-09T00:28:36.251Z,73832
2015-10-09T00:28:47.939Z,73818
2015-10-09T00:29:00.298Z,73822
2015-10-09T00:29:12.676Z,73819
2015-10-09T00:29:25.035Z,73825
2015-10-09T00:29:37.410Z,73824
2015-10-09T00:29:49.770Z,73832
2015-10-09T00:30:02.145Z,73824
2015-10-09T00:30:14.522Z,73825
2015-10-09T00:30:26.881Z,73827
2015-10-09T00:30:39.241Z,73827
2015-10-09T00:30:51.616Z,73827
2015-10-09T00:31:03.991Z,73825
2015-10-09T00:31:16.400Z,73822
2015-10-09T00:31:28.775Z,73828
2015-10-09T00:31:41.150Z,73822
2015-10-09T00:31:53.509Z,73828
2015-10-09T00:32:05.869Z,73825
2015-10-09T00:32:18.247Z,73824
2015-10-09T00:32:30.606Z,73830
2015-10-09T00:32:42.981Z,73818
2015-10-09T00:32:55.340Z,73829
2015-10-09T00:33:07.700Z,73817
2015-10-09T00:33:20.093Z,73823
2015-10-09T00:33:32.468Z,73821
2015-10-09T00:33:44.843Z,73822
2015-10-09T00:33:57.250Z,73827
2015-10-09T00:34:09.640Z,73826
2015-10-09T00:34:22.003Z,73818
2015-10-09T00:34:34.362Z,73819
2015-10-09T00:34:46.737Z,73826
2015-10-09T00:34:59.112Z,73824
2015-10-09T00:35:11.471Z,73821
2015-10-09T00:35:23.848Z,73825
2015-10-09T00:35:36.239Z,73819
2015-10-09T00:35:48.614Z,73824
2015-10-09T00:36:01.020Z,73822
2015-10-09T00:36:13.411Z,73812
2015-10-09T00:36:25.804Z,73815
2015-10-09T00:36:38.164Z,73815
2015-10-09T00:36:50.523Z,73824
2015-10-09T00:37:02.179Z,73822
2015-10-09T00:37:13.836Z,73819
2015-10-09T00:37:26.198Z,73822
2015-10-09T00:37:38.557Z,73824
2015-10-09T00:37:50.917Z,73822
2015-10-09T00:38:03.261Z,73820
2015-10-09T00:38:15.636Z,73822
2015-10-09T00:38:28.029Z,73823
2015-10-09T00:38:40.404Z,73821
2015-10-09T00:38:52.795Z,73825
2015-10-09T00:39:05.185Z,73817
2015-10-09T00:39:17.560Z,73820
2015-10-09T00:39:29.985Z,73819
2015-10-09T00:39:42.345Z,73812
2015-10-09T00:39:54.704Z,73815
2015-10-09T00:40:06.360Z,73816
2015-10-09T00:40:18.720Z,73820
2015-10-09T00:40:31.065Z,73816
2015-10-09T00:40:43.425Z,73816
2015-10-09T00:40:55.769Z,73817
2015-10-09T00:41:08.112Z,73818
2015-10-09T00:41:20.487Z,73824
2015-10-09T00:41:32.850Z,73810
2015-10-09T00:41:45.240Z,73817
2015-10-09T00:41:57.631Z,73811
2015-10-09T00:42:10.022Z,73802
2015-10-09T00:42:22.430Z,73816
2015-10-09T00:42:34.789Z,73814
2015-10-09T00:42:47.164Z,73816
2015-10-09T00:42:59.539Z,73821
2015-10-09T00:43:11.899Z,73822
2015-10-09T00:43:24.261Z,73821
2015-10-09T00:43:36.652Z,73822
2015-10-09T00:43:49.011Z,73815
2015-10-09T00:44:01.370Z,73823
2015-10-09T00:44:13.761Z,73822
2015-10-09T00:44:26.123Z,73817
2015-10-09T00:44:38.514Z,73814
2015-10-09T00:44:50.905Z,73810
2015-10-09T00:45:03.295Z,73809
2015-10-09T00:45:15.686Z,73811
2015-10-09T00:45:28.064Z,73815
2015-10-09T00:45:40.423Z,73808
2015-10-09T00:45:52.798Z,73810
2015-10-09T00:46:05.158Z,73821
2015-10-09T00:46:17.517Z,73815
2015-10-09T00:46:29.895Z,73816
2015-10-09T00:46:41.551Z,73816
2015-10-09T00:46:53.911Z,73812
2015-10-09T00:47:06.286Z,73813
2015-10-09T00:47:18.661Z,73814
2015-10-09T00:47:31.038Z,73814
2015-10-09T00:47:43.444Z,73818
2015-10-09T00:47:55.819Z,73815
2015-10-09T00:48:08.225Z,73814
2015-10-09T00:48:20.616Z,73817
2015-10-09T00:48:33.009Z,73817
2015-10-09T00:48:45.369Z,73812
2015-10-09T00:48:57.728Z,73820
2015-10-09T00:49:10.087Z,73826
2015-10-09T00:49:22.447Z,73819
2015-10-09T00:49:34.824Z,73825
2015-10-09T00:49:47.183Z,73824
2015-10-09T00:49:59.558Z,73818
2015-10-09T00:50:11.933Z,73822
2015-10-09T00:50:24.324Z,73814
2015-10-09T00:50:36.734Z,73817
2015-10-09T00:50:49.125Z,73812
2015-10-09T00:51:01.500Z,73812
2015-10-09T00:51:13.875Z,73809
2015-10-09T00:51:26.265Z,73807
2015-10-09T00:51:38.642Z,73810
2015-10-09T00:51:50.986Z,73807
2015-10-09T00:52:03.361Z,73811
2015-10-09T00:52:15.720Z,73806
2015-10-09T00:52:27.377Z,73809
2015-10-09T00:52:39.755Z,73802
2015-10-09T00:52:52.130Z,73803
2015-10-09T00:53:04.489Z,73804
2015-10-09T00:53:16.880Z,73804
2015-10-09T00:53:29.286Z,73807
2015-10-09T00:53:41.679Z,73805
2015-10-09T00:53:54.054Z,73806
2015-10-09T00:54:06.413Z,73803
2015-10-09T00:54:18.772Z,73809
2015-10-09T00:54:31.147Z,73802
2015-10-09T00:54:43.510Z,73802
2015-10-09T00:54:55.166Z,73806
2015-10-09T00:55:07.525Z,73802
2015-10-09T00:55:19.900Z,73809
2015-10-09T00:55:32.260Z,73802
2015-10-09T00:55:44.669Z,73806
2015-10-09T00:55:57.044Z,73798
2015-10-09T00:56:09.435Z,73798
2015-10-09T00:56:21.841Z,73802
2015-10-09T00:56:34.247Z,73800
2015-10-09T00:56:46.625Z,73802
2015-10-09T00:56:58.281Z,73798
2015-10-09T00:57:10.625Z,73807
2015-10-09T00:57:23.000Z,73807
2015-10-09T00:57:35.359Z,73804
2015-10-09T00:57:47.737Z,73806
2015-10-09T00:58:00.097Z,73807
2015-10-09T00:58:12.456Z,73807
2015-10-09T00:58:24.831Z,73808
2015-10-09T00:58:37.206Z,73805
2015-10-09T00:58:49.583Z,73803
2015-10-09T00:59:01.989Z,73802
2015-10-09T00:59:14.396Z,73805
2015-10-09T00:59:26.068Z,73798
2015-10-09T00:59:38.411Z,73800
2015-10-09T00:59:50.789Z,73796
2015-10-09T01:00:03.164Z,73808
2015-10-09T01:00:15.524Z,73804
2015-10-09T01:00:27.883Z,73806
2015-10-09T01:00:40.258Z,73801
2015-10-09T01:00:52.619Z,73801
2015-10-09T01:01:04.994Z,73803
2015-10-09T01:01:17.385Z,73805
2015-10-09T01:01:29.744Z,73799
2015-10-09T01:01:42.135Z,73795
2015-10-09T01:01:54.530Z,73803
2015-10-09T01:02:06.764Z,73803
2015-10-09T01:02:19.170Z,73803
2015-10-09T01:02:31.577Z,73803
2015-10-09T01:02:43.936Z,73802
2015-10-09T01:02:56.298Z,73798
2015-10-09T01:03:08.673Z,73802
2015-10-09T01:03:21.033Z,73797
2015-10-09T01:03:33.392Z,73796
2015-10-09T01:03:45.753Z,73794
2015-10-09T01:03:58.128Z,73797
2015-10-09T01:04:10.488Z,73795
2015-10-09T01:04:22.847Z,73791
2015-10-09T01:04:35.222Z,73798
2015-10-09T01:04:47.600Z,73800
2015-10-09T01:04:59.850Z,73796
2015-10-09T01:05:12.225Z,73798
2015-10-09T01:05:24.585Z,73795
2015-10-09T01:05:36.944Z,73796
2015-10-09T01:05:49.321Z,73798
2015-10-09T01:06:01.680Z,73793
2015-10-09T01:06:14.040Z,73796
2015-10-09T01:06:26.415Z,73795
2015-10-09T01:06:38.774Z,73795
2015-10-09T01:06:51.136Z,73791
2015-10-09T01:07:03.511Z,73796
2015-10-09T01:07:15.902Z,73802
2015-10-09T01:07:28.277Z,73791
2015-10-09T01:07:40.668Z,73801
2015-10-09T01:07:53.077Z,73804
2015-10-09T01:08:05.436Z,73798
2015-10-09T01:08:17.811Z,73799
2015-10-09T01:08:30.171Z,73794
2015-10-09T01:08:42.546Z,73799
2015-10-09T01:08:54.923Z,73800
2015-10-09T01:09:07.282Z,73798
2015-10-09T01:09:19.641Z,73797
2015-10-09T01:09:32.016Z,73796
2015-10-09T01:09:44.376Z,73796
2015-10-09T01:09:56.738Z,73798
2015-10-09T01:10:09.113Z,73798
2015-10-09T01:10:21.519Z,73799
2015-10-09T01:10:33.910Z,73790
2015-10-09T01:10:46.332Z,73791
2015-10-09T01:10:58.710Z,73797
2015-10-09T01:11:11.101Z,73793
2015-10-09T01:11:23.772Z,73797
2015-10-09T01:11:36.132Z,73793
2015-10-09T01:11:47.804Z,73793
2015-10-09T01:12:00.166Z,73790
2015-10-09T01:12:12.525Z,73797
2015-10-09T01:12:24.885Z,73793
2015-10-09T01:12:37.260Z,73785
2015-10-09T01:12:49.666Z,73790
2015-10-09T01:13:02.043Z,73793
2015-10-09T01:13:14.418Z,73800
2015-10-09T01:13:26.809Z,73799
2015-10-09T01:13:39.199Z,73791
2015-10-09T01:13:51.606Z,73794
2015-10-09T01:14:03.968Z,73791
2015-10-09T01:14:16.343Z,73790
2015-10-09T01:14:28.702Z,73798
2015-10-09T01:14:41.077Z,73796
2015-10-09T01:14:53.455Z,73797
2015-10-09T01:15:05.815Z,73797
2015-10-09T01:15:18.174Z,73799
2015-10-09T01:15:30.549Z,73797
2015-10-09T01:15:42.940Z,73795
2015-10-09T01:15:55.332Z,73795
2015-10-09T01:16:07.739Z,73795
2015-10-09T01:16:20.129Z,73793
2015-10-09T01:16:32.520Z,73788
2015-10-09T01:16:44.895Z,73794
2015-10-09T01:16:57.273Z,73804
2015-10-09T01:17:09.632Z,73792
2015-10-09T01:17:21.976Z,73798
2015-10-09T01:17:34.320Z,73800
2015-10-09T01:17:46.679Z,73794
2015-10-09T01:17:59.041Z,73805
2015-10-09T01:18:11.385Z,73808
2015-10-09T01:18:23.760Z,73800
2015-10-09T01:18:36.135Z,73798
2015-10-09T01:18:48.526Z,73789
2015-10-09T01:19:00.934Z,73790
2015-10-09T01:19:13.309Z,73789
2015-10-09T01:19:25.715Z,73793
2015-10-09T01:19:38.122Z,73790
2015-10-09T01:19:50.481Z,73793
2015-10-09T01:20:02.844Z,73790
2015-10-09T01:20:15.204Z,73793
2015-10-09T01:20:27.594Z,73796
2015-10-09T01:20:39.969Z,73798
2015-10-09T01:20:52.344Z,73796
2015-10-09T01:21:04.706Z,73793
2015-10-09T01:21:16.362Z,73797
2015-10-09T01:21:28.737Z,73798
2015-10-09T01:21:41.112Z,73796
2015-10-09T01:21:53.503Z,73792
2015-10-09T01:22:05.881Z,73803
2015-10-09T01:22:18.287Z,73800
2015-10-09T01:22:30.693Z,73799
2015-10-09T01:22:43.084Z,73799
2015-10-09T01:22:55.459Z,73796
2015-10-09T01:23:07.805Z,73796
2015-10-09T01:23:20.180Z,73796
2015-10-09T01:23:32.555Z,73795
2015-10-09T01:23:44.915Z,73799
2015-10-09T01:23:57.274Z,73797
2015-10-09T01:24:09.652Z,73804
2015-10-09T01:24:22.012Z,73805
2015-10-09T01:24:34.387Z,73795
2015-10-09T01:24:46.746Z,73798
2015-10-09T01:24:59.121Z,73790
2015-10-09T01:25:11.515Z,73795
2015-10-09T01:25:23.905Z,73798
2015-10-09T01:25:36.311Z,73801
2015-10-09T01:25:48.718Z,73798
2015-10-09T01:26:01.108Z,73797
2015-10-09T01:26:13.517Z,73799
2015-10-09T01:26:25.876Z,73798
2015-10-09T01:26:38.235Z,73796
2015-10-09T01:26:50.610Z,73798
2015-10-09T01:27:02.954Z,73804
2015-10-09T01:27:15.332Z,73795
2015-10-09T01:27:27.707Z,73806
2015-10-09T01:27:40.066Z,73803
2015-10-09T01:27:52.441Z,73795
2015-10-09T01:28:04.801Z,73802
2015-10-09T01:28:16.476Z,73802
2015-10-09T01:28:28.882Z,73794
2015-10-09T01:28:41.288Z,73795
2015-10-09T01:28:53.679Z,73798
2015-10-09T01:29:06.101Z,73795
2015-10-09T01:29:18.446Z,73795
2015-10-09T01:29:30.821Z,73797
2015-10-09T01:29:43.181Z,73798
2015-10-09T01:29:55.540Z,73795
2015-10-09T01:30:07.900Z,73796
2015-10-09T01:30:20.262Z,73795
2015-10-09T01:30:32.621Z,73794
2015-10-09T01:30:44.996Z,73796
2015-10-09T01:30:57.371Z,73795
2015-10-09T01:31:09.746Z,73795
2015-10-09T01:31:22.124Z,73800
2015-10-09T01:31:34.515Z,73788
2015-10-09T01:31:46.906Z,73798
2015-10-09T01:31:59.281Z,73798
2015-10-09T01:32:11.687Z,73800
2015-10-09T01:32:24.096Z,73801
2015-10-09T01:32:36.455Z,73800
2015-10-09T01:32:48.830Z,73798
2015-10-09T01:33:01.205Z,73802
2015-10-09T01:33:13.567Z,73793
2015-10-09T01:33:25.957Z,73795
2015-10-09T01:33:38.317Z,73786
2015-10-09T01:33:50.676Z,73787
2015-10-09T01:34:03.036Z,73786
2015-10-09T01:34:15.414Z,73790
2015-10-09T01:34:27.773Z,73792
2015-10-09T01:34:40.148Z,73792
2015-10-09T01:34:52.554Z,73787
2015-10-09T01:35:04.945Z,73788
2015-10-09T01:35:17.337Z,73794
2015-10-09T01:35:29.009Z,73793
2015-10-09T01:35:41.369Z,73789
2015-10-09T01:35:53.728Z,73794
2015-10-09T01:36:06.103Z,73791
2015-10-09T01:36:18.465Z,73792
2015-10-09T01:36:30.825Z,73793
2015-10-09T01:36:43.200Z,73792
2015-10-09T01:36:55.559Z,73796
2015-10-09T01:37:07.934Z,73789
2015-10-09T01:37:20.312Z,73792
2015-10-09T01:37:32.687Z,73789
2015-10-09T01:37:45.047Z,73790
2015-10-09T01:37:57.484Z,73790
2015-10-09T01:38:09.875Z,73791
2015-10-09T01:38:22.299Z,73789
2015-10-09T01:38:34.674Z,73795
2015-10-09T01:38:46.361Z,73791
2015-10-09T01:38:58.720Z,73794
2015-10-09T01:39:11.095Z,73796
2015-10-09T01:39:23.458Z,73792
2015-10-09T01:39:35.833Z,73790
2015-10-09T01:39:48.192Z,73788
2015-10-09T01:40:00.552Z,73788
2015-10-09T01:40:12.911Z,73789
2015-10-09T01:40:25.273Z,73790
2015-10-09T01:40:37.664Z,73787
2015-10-09T01:40:50.039Z,73784
2015-10-09T01:41:02.430Z,73788
2015-10-09T01:41:14.836Z,73788
2015-10-09T01:41:27.229Z,73793
2015-10-09T01:41:39.604Z,73789
2015-10-09T01:41:51.979Z,73788
2015-10-09T01:42:04.323Z,73787
2015-10-09T01:42:16.698Z,73788
2015-10-09T01:42:29.092Z,73788
2015-10-09T01:42:41.467Z,73790
2015-10-09T01:42:53.857Z,73789
2015-10-09T01:43:06.248Z,73787
2015-10-09T01:43:18.639Z,73789
2015-10-09T01:43:31.031Z,73788
2015-10-09T01:43:43.391Z,73784
2015-10-09T01:43:55.750Z,73784
2015-10-09T01:44:08.125Z,73788
2015-10-09T01:44:20.484Z,73788
2015-10-09T01:44:32.847Z,73787
2015-10-09T01:44:45.222Z,73784
2015-10-09T01:44:57.597Z,73786
2015-10-09T01:45:09.956Z,73780
2015-10-09T01:45:22.331Z,73780
2015-10-09T01:45:34.708Z,73782
2015-10-09T01:45:47.114Z,73785
2015-10-09T01:45:59.521Z,73784
2015-10-09T01:46:11.911Z,73785
2015-10-09T01:46:24.302Z,73787
2015-10-09T01:46:36.665Z,73781
2015-10-09T01:46:49.040Z,73787
2015-10-09T01:47:01.415Z,73781
2015-10-09T01:47:13.775Z,73783
2015-10-09T01:47:26.137Z,73783
2015-10-09T01:47:38.496Z,73781
2015-10-09T01:47:50.871Z,73780
2015-10-09T01:48:03.231Z,73783
2015-10-09T01:48:15.606Z,73780
2015-10-09T01:48:27.983Z,73786
2015-10-09T01:48:40.373Z,73776
2015-10-09T01:48:52.780Z,73783
2015-10-09T01:49:05.170Z,73784
2015-10-09T01:49:17.530Z,73782
2015-10-09T01:49:29.892Z,73783
2015-10-09T01:49:42.267Z,73783
2015-10-09T01:49:54.658Z,73785
2015-10-09T01:50:07.001Z,73784
2015-10-09T01:50:19.361Z,73781
2015-10-09T01:50:31.738Z,73782
2015-10-09T01:50:44.097Z,73784
2015-10-09T01:50:56.488Z,73783
2015-10-09T01:51:08.863Z,73783
2015-10-09T01:51:21.222Z,73781
2015-10-09T01:51:33.616Z,73786
2015-10-09T01:51:46.022Z,73781
2015-10-09T01:51:58.381Z,73785
2015-10-09T01:52:10.741Z,73783
2015-10-09T01:52:23.116Z,73786
2015-10-09T01:52:35.478Z,73787
2015-10-09T01:52:47.853Z,73787
2015-10-09T01:53:00.213Z,73784
2015-10-09T01:53:12.572Z,73782
2015-10-09T01:53:24.994Z,73780
2015-10-09T01:53:37.372Z,73779
2015-10-09T01:53:49.747Z,73784
2015-10-09T01:54:02.122Z,73785
2015-10-09T01:54:14.497Z,73778
2015-10-09T01:54:26.887Z,73780
2015-10-09T01:54:39.297Z,73784
2015-10-09T01:54:51.719Z,73783
2015-10-09T01:55:03.359Z,73779
2015-10-09T01:55:15.719Z,73785
2015-10-09T01:55:28.094Z,73785
2015-10-09T01:55:40.471Z,73778
2015-10-09T01:55:52.830Z,73779
2015-10-09T01:56:05.189Z,73782
2015-10-09T01:56:17.533Z,73785
2015-10-09T01:56:29.892Z,73785
2015-10-09T01:56:42.255Z,73784
2015-10-09T01:56:54.614Z,73784
2015-10-09T01:57:06.989Z,73777
2015-10-09T01:57:19.380Z,73780
2015-10-09T01:57:31.786Z,73780
2015-10-09T01:57:44.195Z,73784
2015-10-09T01:57:56.586Z,73781
2015-10-09T01:58:08.992Z,73778
2015-10-09T01:58:21.352Z,73777
2015-10-09T01:58:33.711Z,73776
2015-10-09T01:58:46.072Z,73784
2015-10-09T01:58:58.432Z,73780
2015-10-09T01:59:10.807Z,73777
2015-10-09T01:59:23.166Z,73779
2015-10-09T01:59:35.525Z,73776
2015-10-09T01:59:47.903Z,73778
2015-10-09T02:00:00.278Z,73780
2015-10-09T02:00:12.653Z,73778
2015-10-09T02:00:25.028Z,73771
2015-10-09T02:00:37.419Z,73779
2015-10-09T02:00:49.813Z,73773
2015-10-09T02:01:02.235Z,73774
2015-10-09T02:01:14.594Z,73779
2015-10-09T02:01:26.969Z,73781
2015-10-09T02:01:39.328Z,73779
2015-10-09T02:01:51.706Z,73777
2015-10-09T02:02:04.066Z,73780
2015-10-09T02:02:16.441Z,73779
2015-10-09T02:02:28.800Z,73779
2015-10-09T02:02:41.161Z,73773
2015-10-09T02:02:53.552Z,73779
2015-10-09T02:03:05.927Z,73772
2015-10-09T02:03:18.318Z,73771
2015-10-09T02:03:30.693Z,73774
2015-10-09T02:03:43.086Z,73775
2015-10-09T02:03:54.774Z,73773
2015-10-09T02:04:07.008Z,73772
2015-10-09T02:04:19.414Z,73775
2015-10-09T02:04:31.774Z,73780
2015-10-09T02:04:44.136Z,73779
2015-10-09T02:04:56.511Z,73778
2015-10-09T02:05:08.871Z,73777
2015-10-09T02:05:21.230Z,73773
2015-10-09T02:05:33.433Z,73777
2015-10-09T02:05:45.794Z,73772
2015-10-09T02:05:58.154Z,73775
2015-10-09T02:06:10.544Z,73770
2015-10-09T02:06:22.919Z,73779
2015-10-09T02:06:35.294Z,73774
2015-10-09T02:06:47.673Z,73779
2015-10-09T02:07:00.095Z,73774
2015-10-09T02:07:12.470Z,73778
2015-10-09T02:07:24.830Z,73776
2015-10-09T02:07:37.173Z,73770
2015-10-09T02:07:49.535Z,73775
2015-10-09T02:08:01.910Z,73772
2015-10-09T02:08:14.285Z,73772
2015-10-09T02:08:26.660Z,73772
2015-10-09T02:08:39.035Z,73776
2015-10-09T02:08:51.413Z,73775
2015-10-09T02:09:03.866Z,73778
2015-10-09T02:09:16.225Z,73774
2015-10-09T02:09:28.600Z,73779
2015-10-09T02:09:40.960Z,73773
2015-10-09T02:09:53.321Z,73775
2015-10-09T02:10:05.696Z,73769
2015-10-09T02:10:18.055Z,73778
2015-10-09T02:10:30.430Z,73771
2015-10-09T02:10:42.790Z,73772
2015-10-09T02:10:55.152Z,73777
2015-10-09T02:11:07.543Z,73777
2015-10-09T02:11:19.918Z,73777
2015-10-09T02:11:32.308Z,73775
2015-10-09T02:11:44.699Z,73780
2015-10-09T02:11:57.093Z,73776
2015-10-09T02:12:09.499Z,73770
2015-10-09T02:12:21.921Z,73778
2015-10-09T02:12:34.280Z,73777
2015-10-09T02:12:46.642Z,73770
2015-10-09T02:12:59.001Z,73773
2015-10-09T02:13:11.376Z,73771
2015-10-09T02:13:23.735Z,73778
2015-10-09T02:13:36.110Z,73774
2015-10-09T02:13:48.473Z,73778
2015-10-09T02:14:00.832Z,73769
2015-10-09T02:14:13.223Z,73772
2015-10-09T02:14:25.598Z,73774
2015-10-09T02:14:37.957Z,73772
2015-10-09T02:14:50.366Z,73770
2015-10-09T02:15:02.773Z,73772
2015-10-09T02:15:15.163Z,73774
2015-10-09T02:15:27.569Z,73769
2015-10-09T02:15:39.944Z,73767
2015-10-09T02:15:52.291Z,73774
2015-10-09T02:16:04.651Z,73773
2015-10-09T02:16:17.026Z,73777
2015-10-09T02:16:29.385Z,73778
2015-10-09T02:16:41.744Z,73770
2015-10-09T02:16:54.121Z,73777
2015-10-09T02:17:06.481Z,73772
2015-10-09T02:17:18.840Z,73775
2015-10-09T02:17:31.215Z,73776
2015-10-09T02:17:43.606Z,73769
2015-10-09T02:17:55.827Z,73775
2015-10-09T02:18:08.218Z,73772
2015-10-09T02:18:20.624Z,73776
2015-10-09T02:18:33.046Z,73776
2015-10-09T02:18:44.687Z,73771
2015-10-09T02:18:57.061Z,73775
2015-10-09T02:19:09.420Z,73777
2015-10-09T02:19:21.795Z,73777
2015-10-09T02:19:34.155Z,73775
2015-10-09T02:19:46.514Z,73772
2015-10-09T02:19:58.877Z,73777
2015-10-09T02:20:11.236Z,73773
2015-10-09T02:20:23.611Z,73771
2015-10-09T02:20:35.283Z,73775
2015-10-09T02:20:47.658Z,73775
2015-10-09T02:21:00.036Z,73777
2015-10-09T02:21:12.442Z,73771
2015-10-09T02:21:24.848Z,73774
2015-10-09T02:21:37.192Z,73774
2015-10-09T02:21:49.567Z,73769
2015-10-09T02:22:01.914Z,73769
2015-10-09T02:22:14.289Z,73774
2015-10-09T02:22:26.649Z,73774
2015-10-09T02:22:39.024Z,73771
2015-10-09T02:22:51.383Z,73772
2015-10-09T02:23:03.730Z,73770
2015-10-09T02:23:16.105Z,73774
2015-10-09T02:23:28.480Z,73777
2015-10-09T02:23:40.855Z,73771
2015-10-09T02:23:53.245Z,73772
2015-10-09T02:24:05.627Z,73772
2015-10-09T02:24:18.017Z,73772
2015-10-09T02:24:30.392Z,73774
2015-10-09T02:24:42.752Z,73769
2015-10-09T02:24:55.111Z,73776
2015-10-09T02:25:07.483Z,73776
2015-10-09T02:25:19.843Z,73775
2015-10-09T02:25:32.202Z,73768
2015-10-09T02:25:44.561Z,73770
2015-10-09T02:25:56.936Z,73769
2015-10-09T02:26:09.308Z,73777
2015-10-09T02:26:21.683Z,73773
2015-10-09T02:26:34.074Z,73772
2015-10-09T02:26:46.465Z,73766
2015-10-09T02:26:58.855Z,73772
2015-10-09T02:27:11.258Z,73769
2015-10-09T02:27:23.649Z,73774
2015-10-09T02:27:36.024Z,73773
2015-10-09T02:27:48.383Z,73771
2015-10-09T02:28:00.743Z,73775
2015-10-09T02:28:13.100Z,73773
2015-10-09T02:28:25.460Z,73774
2015-10-09T02:28:37.835Z,73772
2015-10-09T02:28:50.194Z,73778
2015-10-09T02:29:02.553Z,73772
2015-10-09T02:29:14.927Z,73769
2015-10-09T02:29:27.302Z,73771
2015-10-09T02:29:39.677Z,73778
2015-10-09T02:29:52.084Z,73776
2015-10-09T02:30:04.474Z,73782
2015-10-09T02:30:16.865Z,73773
2015-10-09T02:30:29.271Z,73769
2015-10-09T02:30:41.662Z,73774
2015-10-09T02:30:54.021Z,73772
2015-10-09T02:31:06.396Z,73767
2015-10-09T02:31:18.757Z,73769
2015-10-09T02:31:31.132Z,73770
2015-10-09T02:31:43.492Z,73768
2015-10-09T02:31:55.867Z,73773
2015-10-09T02:32:08.226Z,73774
2015-10-09T02:32:20.586Z,73770
2015-10-09T02:32:32.961Z,73770
2015-10-09T02:32:45.336Z,73771
2015-10-09T02:32:57.695Z,73772
2015-10-09T02:33:10.087Z,73773
2015-10-09T02:33:22.493Z,73772
2015-10-09T02:33:34.852Z,73769
2015-10-09T02:33:47.212Z,73767
2015-10-09T02:33:59.587Z,73771
2015-10-09T02:34:11.947Z,73765
2015-10-09T02:34:24.338Z,73769
2015-10-09T02:34:36.697Z,73766
2015-10-09T02:34:49.056Z,73777
2015-10-09T02:35:01.431Z,73773
2015-10-09T02:35:13.809Z,73769
2015-10-09T02:35:26.184Z,73773
2015-10-09T02:35:38.575Z,73761
2015-10-09T02:35:50.934Z,73766
2015-10-09T02:36:03.294Z,73768
2015-10-09T02:36:15.672Z,73766
2015-10-09T02:36:28.031Z,73770
2015-10-09T02:36:40.390Z,73769
2015-10-09T02:36:52.750Z,73777
2015-10-09T02:37:05.125Z,73768
2015-10-09T02:37:17.486Z,73771
2015-10-09T02:37:29.877Z,73772
2015-10-09T02:37:42.236Z,73770
2015-10-09T02:37:54.627Z,73774
2015-10-09T02:38:07.017Z,73770
2015-10-09T02:38:19.426Z,73773
2015-10-09T02:38:31.832Z,73773
2015-10-09T02:38:44.051Z,73768
2015-10-09T02:38:56.410Z,73774
2015-10-09T02:39:08.785Z,73768